Troy, Ohio
Current Conditions -  °F | °C
As of 8:56 PM on Friday 24 Oct 2014 (Local Time) from KDAY Reporting Station
Broken Clouds Broken Clouds  
Wind Chill: 14°   Ceiling: 4100
Heat Index: 14°   Visibility: 10mi
Dew Point:   Wind: 7mph
Humidity: 55%   Direction: 220°SW
Pressure: 30.04"   Gusts: NA
Location:  40.04°N, 84.2°W
Report Text: KDAY 250056Z 22006KT 10SM BKN041 BKN200 14/05 A3004 RMK AO2 SLP175 T01390050
Loading
Personal Weather Stations






























Interactive Weather Map
Tropical Storm Tracking
New forecast layout! Learn more

10-Day Weather Forecast

Advertisements
Track Severe Weather on mobile